sensor_id;sensor_type;location;lat;lon;timestamp;temperature;humidity
46139;DHT22;32398;49.112;8.598;2022-07-04T00:00:52;26.50;51.10
46139;DHT22;32398;49.112;8.598;2022-07-04T00:03:19;26.50;51.30
46139;DHT22;32398;49.112;8.598;2022-07-04T00:05:45;26.50;51.20
46139;DHT22;32398;49.112;8.598;2022-07-04T00:08:12;26.40;51.30
46139;DHT22;32398;49.112;8.598;2022-07-04T00:10:38;26.40;51.30
46139;DHT22;32398;49.112;8.598;2022-07-04T00:13:06;26.40;51.20
46139;DHT22;32398;49.112;8.598;2022-07-04T00:15:33;26.30;51.30
46139;DHT22;32398;49.112;8.598;2022-07-04T00:17:59;26.30;51.50
46139;DHT22;32398;49.112;8.598;2022-07-04T00:20:26;26.20;51.60
46139;DHT22;32398;49.112;8.598;2022-07-04T00:22:52;26.20;51.90
46139;DHT22;32398;49.112;8.598;2022-07-04T00:25:19;26.20;51.90
46139;DHT22;32398;49.112;8.598;2022-07-04T00:27:45;26.10;52.00
46139;DHT22;32398;49.112;8.598;2022-07-04T00:30:13;26.10;52.10
46139;DHT22;32398;49.112;8.598;2022-07-04T00:32:40;26.00;52.70
46139;DHT22;32398;49.112;8.598;2022-07-04T00:35:07;26.00;52.20
46139;DHT22;32398;49.112;8.598;2022-07-04T00:37:34;26.00;52.40
46139;DHT22;32398;49.112;8.598;2022-07-04T00:40:00;25.90;52.60
46139;DHT22;32398;49.112;8.598;2022-07-04T00:42:27;25.90;52.50
46139;DHT22;32398;49.112;8.598;2022-07-04T00:44:53;25.90;52.60
46139;DHT22;32398;49.112;8.598;2022-07-04T00:47:21;25.80;52.70
46139;DHT22;32398;49.112;8.598;2022-07-04T00:49:48;25.80;52.80
46139;DHT22;32398;49.112;8.598;2022-07-04T00:52:14;25.80;52.90
46139;DHT22;32398;49.112;8.598;2022-07-04T00:54:41;25.70;53.00
46139;DHT22;32398;49.112;8.598;2022-07-04T00:57:08;25.60;53.00
46139;DHT22;32398;49.112;8.598;2022-07-04T00:59:34;25.60;53.00
46139;DHT22;32398;49.112;8.598;2022-07-04T01:02:01;25.60;53.20
46139;DHT22;32398;49.112;8.598;2022-07-04T01:04:29;25.60;53.30
46139;DHT22;32398;49.112;8.598;2022-07-04T01:06:55;25.50;53.30
46139;DHT22;32398;49.112;8.598;2022-07-04T01:09:22;25.50;53.40
46139;DHT22;32398;49.112;8.598;2022-07-04T01:11:49;25.50;53.50
46139;DHT22;32398;49.112;8.598;2022-07-04T01:14:16;25.50;53.70
46139;DHT22;32398;49.112;8.598;2022-07-04T01:16:42;25.40;53.60
46139;DHT22;32398;49.112;8.598;2022-07-04T01:19:09;25.40;53.70
46139;DHT22;32398;49.112;8.598;2022-07-04T01:21:37;25.30;53.70
46139;DHT22;32398;49.112;8.598;2022-07-04T01:24:04;25.30;53.90
46139;DHT22;32398;49.112;8.598;2022-07-04T01:26:31;25.30;53.90
46139;DHT22;32398;49.112;8.598;2022-07-04T01:28:57;25.20;54.00
46139;DHT22;32398;49.112;8.598;2022-07-04T01:31:24;25.20;54.10
46139;DHT22;32398;49.112;8.598;2022-07-04T01:33:50;25.10;54.00
46139;DHT22;32398;49.112;8.598;2022-07-04T01:36:17;25.10;54.00
46139;DHT22;32398;49.112;8.598;2022-07-04T01:38:45;25.10;54.10
46139;DHT22;32398;49.112;8.598;2022-07-04T01:41:11;25.10;54.20
46139;DHT22;32398;49.112;8.598;2022-07-04T01:43:38;25.00;54.20
46139;DHT22;32398;49.112;8.598;2022-07-04T01:46:04;25.00;54.30
46139;DHT22;32398;49.112;8.598;2022-07-04T01:48:31;25.00;54.20
46139;DHT22;32398;49.112;8.598;2022-07-04T01:50:57;24.90;54.30
46139;DHT22;32398;49.112;8.598;2022-07-04T01:53:24;24.90;54.80
46139;DHT22;32398;49.112;8.598;2022-07-04T01:55:52;24.90;54.30
46139;DHT22;32398;49.112;8.598;2022-07-04T01:58:18;24.90;54.30
46139;DHT22;32398;49.112;8.598;2022-07-04T02:00:45;24.80;54.40
46139;DHT22;32398;49.112;8.598;2022-07-04T02:03:29;24.70;54.30
46139;DHT22;32398;49.112;8.598;2022-07-04T02:05:56;24.70;54.30
46139;DHT22;32398;49.112;8.598;2022-07-04T02:08:22;24.70;54.20
46139;DHT22;32398;49.112;8.598;2022-07-04T02:11:10;24.60;54.20
46139;DHT22;32398;49.112;8.598;2022-07-04T02:13:37;24.60;54.30
46139;DHT22;32398;49.112;8.598;2022-07-04T02:16:02;24.50;54.40
46139;DHT22;32398;49.112;8.598;2022-07-04T02:18:29;24.50;54.30
46139;DHT22;32398;49.112;8.598;2022-07-04T02:20:55;24.50;54.40
46139;DHT22;32398;49.112;8.598;2022-07-04T02:23:22;24.40;54.40
46139;DHT22;32398;49.112;8.598;2022-07-04T02:25:49;24.40;54.40
46139;DHT22;32398;49.112;8.598;2022-07-04T02:28:16;24.40;54.40
46139;DHT22;32398;49.112;8.598;2022-07-04T02:30:44;24.30;54.40
46139;DHT22;32398;49.112;8.598;2022-07-04T02:33:10;24.30;54.50
46139;DHT22;32398;49.112;8.598;2022-07-04T02:35:38;24.30;54.50
46139;DHT22;32398;49.112;8.598;2022-07-04T02:38:04;24.20;54.50
46139;DHT22;32398;49.112;8.598;2022-07-04T02:40:31;24.20;54.50
46139;DHT22;32398;49.112;8.598;2022-07-04T02:42:57;24.20;54.50
46139;DHT22;32398;49.112;8.598;2022-07-04T02:45:25;24.20;54.60
46139;DHT22;32398;49.112;8.598;2022-07-04T02:47:52;24.10;54.60
46139;DHT22;32398;49.112;8.598;2022-07-04T02:50:18;24.10;54.60
46139;DHT22;32398;49.112;8.598;2022-07-04T02:52:45;24.00;54.60
46139;DHT22;32398;49.112;8.598;2022-07-04T02:55:11;24.00;54.50
46139;DHT22;32398;49.112;8.598;2022-07-04T02:57:38;24.00;54.70
46139;DHT22;32398;49.112;8.598;2022-07-04T03:00:05;23.90;54.60
46139;DHT22;32398;49.112;8.598;2022-07-04T03:02:33;23.90;54.80
46139;DHT22;32398;49.112;8.598;2022-07-04T03:05:00;23.90;54.70
46139;DHT22;32398;49.112;8.598;2022-07-04T03:07:26;23.80;54.80
46139;DHT22;32398;49.112;8.598;2022-07-04T03:09:53;23.80;54.70
46139;DHT22;32398;49.112;8.598;2022-07-04T03:12:19;23.80;54.90
46139;DHT22;32398;49.112;8.598;2022-07-04T03:14:46;23.70;54.80
46139;DHT22;32398;49.112;8.598;2022-07-04T03:17:12;23.70;54.90
46139;DHT22;32398;49.112;8.598;2022-07-04T03:19:40;23.70;55.00
46139;DHT22;32398;49.112;8.598;2022-07-04T03:22:07;23.60;55.00
46139;DHT22;32398;49.112;8.598;2022-07-04T03:24:33;23.60;55.00
46139;DHT22;32398;49.112;8.598;2022-07-04T03:27:00;23.50;55.00
46139;DHT22;32398;49.112;8.598;2022-07-04T03:29:26;23.50;55.20
46139;DHT22;32398;49.112;8.598;2022-07-04T03:31:53;23.50;55.20
46139;DHT22;32398;49.112;8.598;2022-07-04T03:34:19;23.40;55.20
46139;DHT22;32398;49.112;8.598;2022-07-04T03:36:47;23.40;55.30
46139;DHT22;32398;49.112;8.598;2022-07-04T03:39:14;23.40;55.40
46139;DHT22;32398;49.112;8.598;2022-07-04T03:41:40;23.40;55.40
46139;DHT22;32398;49.112;8.598;2022-07-04T03:44:07;23.30;55.50
46139;DHT22;32398;49.112;8.598;2022-07-04T03:46:33;23.30;55.50
46139;DHT22;32398;49.112;8.598;2022-07-04T03:49:00;23.30;55.60
46139;DHT22;32398;49.112;8.598;2022-07-04T03:51:26;23.20;55.70
46139;DHT22;32398;49.112;8.598;2022-07-04T03:53:54;23.20;55.80
46139;DHT22;32398;49.112;8.598;2022-07-04T03:56:21;22.90;55.70
46139;DHT22;32398;49.112;8.598;2022-07-04T03:58:48;23.20;55.80
46139;DHT22;32398;49.112;8.598;2022-07-04T04:01:15;23.10;55.90
46139;DHT22;32398;49.112;8.598;2022-07-04T04:03:42;23.10;56.10
46139;DHT22;32398;49.112;8.598;2022-07-04T04:06:26;23.10;56.10
46139;DHT22;32398;49.112;8.598;2022-07-04T04:08:54;23.00;56.10
46139;DHT22;32398;49.112;8.598;2022-07-04T04:11:21;23.00;56.20
46139;DHT22;32398;49.112;8.598;2022-07-04T04:13:47;23.00;56.20
46139;DHT22;32398;49.112;8.598;2022-07-04T04:16:14;22.90;56.30
46139;DHT22;32398;49.112;8.598;2022-07-04T04:18:41;22.90;56.30
46139;DHT22;32398;49.112;8.598;2022-07-04T04:21:07;22.90;56.40
46139;DHT22;32398;49.112;8.598;2022-07-04T04:23:34;22.90;56.40
46139;DHT22;32398;49.112;8.598;2022-07-04T04:26:01;22.80;56.40
46139;DHT22;32398;49.112;8.598;2022-07-04T04:28:28;22.80;56.50
46139;DHT22;32398;49.112;8.598;2022-07-04T04:30:55;22.80;56.60
46139;DHT22;32398;49.112;8.598;2022-07-04T04:33:21;22.80;56.60
46139;DHT22;32398;49.112;8.598;2022-07-04T04:35:48;22.70;56.70
46139;DHT22;32398;49.112;8.598;2022-07-04T04:38:14;22.70;56.60
46139;DHT22;32398;49.112;8.598;2022-07-04T04:40:41;22.70;56.60
46139;DHT22;32398;49.112;8.598;2022-07-04T04:43:09;22.60;56.60
46139;DHT22;32398;49.112;8.598;2022-07-04T04:45:35;22.60;56.70
46139;DHT22;32398;49.112;8.598;2022-07-04T04:48:02;22.60;56.70
46139;DHT22;32398;49.112;8.598;2022-07-04T04:50:28;22.60;56.60
46139;DHT22;32398;49.112;8.598;2022-07-04T04:52:55;22.50;56.70
46139;DHT22;32398;49.112;8.598;2022-07-04T04:55:22;22.50;56.80
46139;DHT22;32398;49.112;8.598;2022-07-04T04:57:49;22.50;56.80
46139;DHT22;32398;49.112;8.598;2022-07-04T05:00:17;22.40;56.80
46139;DHT22;32398;49.112;8.598;2022-07-04T05:02:44;22.30;55.10
46139;DHT22;32398;49.112;8.598;2022-07-04T05:05:11;22.20;55.80
46139;DHT22;32398;49.112;8.598;2022-07-04T05:07:37;22.10;56.30
46139;DHT22;32398;49.112;8.598;2022-07-04T05:10:04;22.10;56.80
46139;DHT22;32398;49.112;8.598;2022-07-04T05:12:31;22.10;57.10
46139;DHT22;32398;49.112;8.598;2022-07-04T05:14:58;22.10;57.20
46139;DHT22;32398;49.112;8.598;2022-07-04T05:17:26;22.10;57.30
46139;DHT22;32398;49.112;8.598;2022-07-04T05:19:52;22.00;57.20
46139;DHT22;32398;49.112;8.598;2022-07-04T05:22:19;22.10;57.20
46139;DHT22;32398;49.112;8.598;2022-07-04T05:24:45;22.00;57.00
46139;DHT22;32398;49.112;8.598;2022-07-04T05:27:12;22.00;57.10
46139;DHT22;32398;49.112;8.598;2022-07-04T05:29:38;22.00;57.20
46139;DHT22;32398;49.112;8.598;2022-07-04T05:32:05;22.00;57.20
46139;DHT22;32398;49.112;8.598;2022-07-04T05:34:33;22.00;57.30
46139;DHT22;32398;49.112;8.598;2022-07-04T05:37:00;22.00;57.20
46139;DHT22;32398;49.112;8.598;2022-07-04T05:39:27;22.00;57.10
46139;DHT22;32398;49.112;8.598;2022-07-04T05:41:54;22.00;57.10
46139;DHT22;32398;49.112;8.598;2022-07-04T05:44:20;22.00;57.00
46139;DHT22;32398;49.112;8.598;2022-07-04T05:46:47;22.00;57.00
46139;DHT22;32398;49.112;8.598;2022-07-04T05:49:14;22.00;57.00
46139;DHT22;32398;49.112;8.598;2022-07-04T05:51:41;22.00;57.00
46139;DHT22;32398;49.112;8.598;2022-07-04T05:54:08;22.00;57.10
46139;DHT22;32398;49.112;8.598;2022-07-04T05:56:35;22.00;57.00
46139;DHT22;32398;49.112;8.598;2022-07-04T05:59:03;22.00;57.10
46139;DHT22;32398;49.112;8.598;2022-07-04T06:01:29;22.00;57.60
46139;DHT22;32398;49.112;8.598;2022-07-04T06:03:56;22.00;57.10
46139;DHT22;32398;49.112;8.598;2022-07-04T06:06:22;22.00;57.30
46139;DHT22;32398;49.112;8.598;2022-07-04T06:08:50;22.00;57.00
46139;DHT22;32398;49.112;8.598;2022-07-04T06:11:16;22.00;57.00
46139;DHT22;32398;49.112;8.598;2022-07-04T06:13:43;22.00;56.90
46139;DHT22;32398;49.112;8.598;2022-07-04T06:16:10;22.00;57.10
46139;DHT22;32398;49.112;8.598;2022-07-04T06:18:36;22.00;57.10
46139;DHT22;32398;49.112;8.598;2022-07-04T06:21:03;22.00;57.10
46139;DHT22;32398;49.112;8.598;2022-07-04T06:23:29;22.00;57.20
46139;DHT22;32398;49.112;8.598;2022-07-04T06:25:58;22.00;57.20
46139;DHT22;32398;49.112;8.598;2022-07-04T06:28:24;22.00;57.10
46139;DHT22;32398;49.112;8.598;2022-07-04T06:30:51;22.00;57.20
46139;DHT22;32398;49.112;8.598;2022-07-04T06:33:17;22.00;57.00
46139;DHT22;32398;49.112;8.598;2022-07-04T06:35:45;22.00;57.10
46139;DHT22;32398;49.112;8.598;2022-07-04T06:38:11;22.00;57.00
46139;DHT22;32398;49.112;8.598;2022-07-04T06:40:38;22.00;57.10
46139;DHT22;32398;49.112;8.598;2022-07-04T06:43:06;22.00;57.10
46139;DHT22;32398;49.112;8.598;2022-07-04T06:45:32;22.00;57.10
46139;DHT22;32398;49.112;8.598;2022-07-04T06:47:59;22.00;57.10
46139;DHT22;32398;49.112;8.598;2022-07-04T06:50:26;22.00;57.10
46139;DHT22;32398;49.112;8.598;2022-07-04T06:52:53;22.00;57.20
46139;DHT22;32398;49.112;8.598;2022-07-04T06:55:19;22.00;57.20
46139;DHT22;32398;49.112;8.598;2022-07-04T06:57:46;22.00;57.20
46139;DHT22;32398;49.112;8.598;2022-07-04T07:00:14;22.00;57.10
46139;DHT22;32398;49.112;8.598;2022-07-04T07:02:41;22.00;57.10
46139;DHT22;32398;49.112;8.598;2022-07-04T07:05:08;22.00;57.20
46139;DHT22;32398;49.112;8.598;2022-07-04T07:07:34;22.00;57.10
46139;DHT22;32398;49.112;8.598;2022-07-04T07:10:01;22.10;57.20
46139;DHT22;32398;49.112;8.598;2022-07-04T07:12:28;22.10;57.30
46139;DHT22;32398;49.112;8.598;2022-07-04T07:17:32;22.10;57.10
46139;DHT22;32398;49.112;8.598;2022-07-04T07:19:58;22.10;57.20
46139;DHT22;32398;49.112;8.598;2022-07-04T07:22:25;22.10;57.20
46139;DHT22;32398;49.112;8.598;2022-07-04T07:24:52;22.10;57.20
46139;DHT22;32398;49.112;8.598;2022-07-04T07:27:18;22.10;57.00
46139;DHT22;32398;49.112;8.598;2022-07-04T07:29:45;22.10;57.20
46139;DHT22;32398;49.112;8.598;2022-07-04T07:32:12;22.10;57.20
46139;DHT22;32398;49.112;8.598;2022-07-04T07:34:40;22.10;57.20
46139;DHT22;32398;49.112;8.598;2022-07-04T07:37:06;22.20;57.20
46139;DHT22;32398;49.112;8.598;2022-07-04T07:39:33;22.20;57.20
46139;DHT22;32398;49.112;8.598;2022-07-04T07:42:00;22.20;57.20
46139;DHT22;32398;49.112;8.598;2022-07-04T07:44:26;22.20;57.20
46139;DHT22;32398;49.112;8.598;2022-07-04T07:46:53;22.20;57.10
46139;DHT22;32398;49.112;8.598;2022-07-04T07:49:20;22.20;57.10
46139;DHT22;32398;49.112;8.598;2022-07-04T07:51:47;22.20;57.10
46139;DHT22;32398;49.112;8.598;2022-07-04T07:54:14;22.20;57.20
46139;DHT22;32398;49.112;8.598;2022-07-04T07:56:42;22.30;57.20
46139;DHT22;32398;49.112;8.598;2022-07-04T07:59:09;22.30;57.10
46139;DHT22;32398;49.112;8.598;2022-07-04T08:01:35;22.30;57.00
46139;DHT22;32398;49.112;8.598;2022-07-04T08:04:02;22.30;56.90
46139;DHT22;32398;49.112;8.598;2022-07-04T08:06:48;22.40;57.10
46139;DHT22;32398;49.112;8.598;2022-07-04T08:09:14;22.30;56.90
46139;DHT22;32398;49.112;8.598;2022-07-04T08:11:41;22.40;56.80
46139;DHT22;32398;49.112;8.598;2022-07-04T08:14:07;22.40;56.80
46139;DHT22;32398;49.112;8.598;2022-07-04T08:16:34;22.40;56.80
46139;DHT22;32398;49.112;8.598;2022-07-04T08:19:01;22.40;56.90
46139;DHT22;32398;49.112;8.598;2022-07-04T08:21:28;22.40;56.90
46139;DHT22;32398;49.112;8.598;2022-07-04T08:23:56;22.50;56.80
46139;DHT22;32398;49.112;8.598;2022-07-04T08:26:22;22.40;56.80
46139;DHT22;32398;49.112;8.598;2022-07-04T08:28:49;22.50;56.80
46139;DHT22;32398;49.112;8.598;2022-07-04T08:31:17;22.50;56.80
46139;DHT22;32398;49.112;8.598;2022-07-04T08:33:43;22.60;57.00
46139;DHT22;32398;49.112;8.598;2022-07-04T08:36:10;22.50;56.80
46139;DHT22;32398;49.112;8.598;2022-07-04T08:38:36;22.60;56.80
46139;DHT22;32398;49.112;8.598;2022-07-04T08:41:04;22.60;56.70
46139;DHT22;32398;49.112;8.598;2022-07-04T08:43:31;22.60;56.50
46139;DHT22;32398;49.112;8.598;2022-07-04T08:46:00;22.70;56.40
46139;DHT22;32398;49.112;8.598;2022-07-04T08:48:29;22.70;56.40
46139;DHT22;32398;49.112;8.598;2022-07-04T08:50:57;22.70;56.30
46139;DHT22;32398;49.112;8.598;2022-07-04T08:53:27;22.70;56.40
46139;DHT22;32398;49.112;8.598;2022-07-04T08:55:54;22.80;56.50
46139;DHT22;32398;49.112;8.598;2022-07-04T08:58:40;22.80;56.40
46139;DHT22;32398;49.112;8.598;2022-07-04T09:01:08;22.80;56.40
46139;DHT22;32398;49.112;8.598;2022-07-04T09:03:40;22.90;56.40
46139;DHT22;32398;49.112;8.598;2022-07-04T09:06:06;22.90;56.30
46139;DHT22;32398;49.112;8.598;2022-07-04T09:08:33;22.90;56.20
46139;DHT22;32398;49.112;8.598;2022-07-04T09:10:59;23.00;56.20
46139;DHT22;32398;49.112;8.598;2022-07-04T09:13:26;23.00;56.10
46139;DHT22;32398;49.112;8.598;2022-07-04T09:15:54;23.00;56.00
46139;DHT22;32398;49.112;8.598;2022-07-04T09:18:22;23.10;55.70
46139;DHT22;32398;49.112;8.598;2022-07-04T09:20:49;23.10;55.50
46139;DHT22;32398;49.112;8.598;2022-07-04T09:23:17;23.10;55.10
46139;DHT22;32398;49.112;8.598;2022-07-04T09:25:44;23.10;54.90
46139;DHT22;32398;49.112;8.598;2022-07-04T09:28:10;23.20;54.80
46139;DHT22;32398;49.112;8.598;2022-07-04T09:30:46;23.30;54.90
46139;DHT22;32398;49.112;8.598;2022-07-04T09:33:14;23.30;54.70
46139;DHT22;32398;49.112;8.598;2022-07-04T09:35:42;23.30;54.50
46139;DHT22;32398;49.112;8.598;2022-07-04T09:38:09;23.40;54.40
46139;DHT22;32398;49.112;8.598;2022-07-04T09:40:38;23.40;54.40
46139;DHT22;32398;49.112;8.598;2022-07-04T09:43:19;23.50;54.30
46139;DHT22;32398;49.112;8.598;2022-07-04T09:45:52;23.50;54.30
46139;DHT22;32398;49.112;8.598;2022-07-04T09:48:21;23.50;53.90
46139;DHT22;32398;49.112;8.598;2022-07-04T09:50:48;23.60;53.70
46139;DHT22;32398;49.112;8.598;2022-07-04T09:53:14;23.70;53.80
46139;DHT22;32398;49.112;8.598;2022-07-04T09:55:41;23.70;53.70
46139;DHT22;32398;49.112;8.598;2022-07-04T09:58:09;23.80;53.70
46139;DHT22;32398;49.112;8.598;2022-07-04T10:00:36;23.80;53.60
46139;DHT22;32398;49.112;8.598;2022-07-04T10:03:15;23.80;53.40
46139;DHT22;32398;49.112;8.598;2022-07-04T10:05:44;23.90;53.30
46139;DHT22;32398;49.112;8.598;2022-07-04T10:08:11;23.90;53.20
46139;DHT22;32398;49.112;8.598;2022-07-04T10:10:38;24.00;52.80
46139;DHT22;32398;49.112;8.598;2022-07-04T10:13:05;24.00;52.30
46139;DHT22;32398;49.112;8.598;2022-07-04T10:15:33;24.10;52.50
46139;DHT22;32398;49.112;8.598;2022-07-04T10:18:00;24.20;52.60
46139;DHT22;32398;49.112;8.598;2022-07-04T10:20:27;24.20;52.70
46139;DHT22;32398;49.112;8.598;2022-07-04T10:22:55;24.30;52.70
46139;DHT22;32398;49.112;8.598;2022-07-04T10:25:22;24.30;52.40
46139;DHT22;32398;49.112;8.598;2022-07-04T10:27:48;24.40;52.40
46139;DHT22;32398;49.112;8.598;2022-07-04T10:30:17;24.50;52.10
46139;DHT22;32398;49.112;8.598;2022-07-04T10:32:47;24.50;51.60
46139;DHT22;32398;49.112;8.598;2022-07-04T10:35:14;24.60;51.30
46139;DHT22;32398;49.112;8.598;2022-07-04T10:38:02;24.70;51.30
46139;DHT22;32398;49.112;8.598;2022-07-04T10:40:38;24.70;51.20
46139;DHT22;32398;49.112;8.598;2022-07-04T10:45:46;24.90;51.00
46139;DHT22;32398;49.112;8.598;2022-07-04T10:48:19;24.90;50.80
46139;DHT22;32398;49.112;8.598;2022-07-04T10:50:55;25.00;51.10
46139;DHT22;32398;49.112;8.598;2022-07-04T10:53:25;25.00;50.80
46139;DHT22;32398;49.112;8.598;2022-07-04T10:55:51;25.10;50.70
46139;DHT22;32398;49.112;8.598;2022-07-04T10:58:27;25.10;50.20
46139;DHT22;32398;49.112;8.598;2022-07-04T11:01:10;25.20;50.40
46139;DHT22;32398;49.112;8.598;2022-07-04T11:03:43;25.20;50.00
46139;DHT22;32398;49.112;8.598;2022-07-04T11:06:24;25.30;50.50
46139;DHT22;32398;49.112;8.598;2022-07-04T11:09:14;25.40;51.40
46139;DHT22;32398;49.112;8.598;2022-07-04T11:11:47;25.40;52.00
46139;DHT22;32398;49.112;8.598;2022-07-04T11:14:30;25.50;51.40
46139;DHT22;32398;49.112;8.598;2022-07-04T11:16:57;25.50;51.40
46139;DHT22;32398;49.112;8.598;2022-07-04T11:19:23;25.50;51.90
46139;DHT22;32398;49.112;8.598;2022-07-04T11:21:50;25.60;50.90
46139;DHT22;32398;49.112;8.598;2022-07-04T11:24:18;25.60;51.30
46139;DHT22;32398;49.112;8.598;2022-07-04T11:26:44;25.70;51.60
46139;DHT22;32398;49.112;8.598;2022-07-04T11:29:12;25.70;51.80
46139;DHT22;32398;49.112;8.598;2022-07-04T11:31:39;25.80;51.40
46139;DHT22;32398;49.112;8.598;2022-07-04T11:34:06;25.80;51.30
46139;DHT22;32398;49.112;8.598;2022-07-04T11:36:32;25.90;51.30
46139;DHT22;32398;49.112;8.598;2022-07-04T11:38:59;25.90;51.00
46139;DHT22;32398;49.112;8.598;2022-07-04T11:41:28;25.90;49.70
46139;DHT22;32398;49.112;8.598;2022-07-04T11:44:13;26.00;48.80
46139;DHT22;32398;49.112;8.598;2022-07-04T11:47:01;26.10;48.50
46139;DHT22;32398;49.112;8.598;2022-07-04T11:49:28;26.10;48.30
46139;DHT22;32398;49.112;8.598;2022-07-04T11:51:55;26.20;48.80
46139;DHT22;32398;49.112;8.598;2022-07-04T11:54:21;26.20;48.30
46139;DHT22;32398;49.112;8.598;2022-07-04T11:56:49;26.30;48.50
46139;DHT22;32398;49.112;8.598;2022-07-04T11:59:16;26.30;49.30
46139;DHT22;32398;49.112;8.598;2022-07-04T12:01:43;26.40;49.30
46139;DHT22;32398;49.112;8.598;2022-07-04T12:04:11;26.40;50.10
46139;DHT22;32398;49.112;8.598;2022-07-04T12:06:37;26.50;49.00
46139;DHT22;32398;49.112;8.598;2022-07-04T12:09:04;26.60;49.10
46139;DHT22;32398;49.112;8.598;2022-07-04T12:14:14;26.70;47.40
46139;DHT22;32398;49.112;8.598;2022-07-04T12:16:40;26.70;48.80
46139;DHT22;32398;49.112;8.598;2022-07-04T12:19:08;26.80;49.10
46139;DHT22;32398;49.112;8.598;2022-07-04T12:21:34;26.80;48.90
46139;DHT22;32398;49.112;8.598;2022-07-04T12:24:01;26.90;48.90
46139;DHT22;32398;49.112;8.598;2022-07-04T12:26:29;26.90;48.60
46139;DHT22;32398;49.112;8.598;2022-07-04T12:28:56;26.90;48.00
46139;DHT22;32398;49.112;8.598;2022-07-04T12:31:33;27.00;47.40
46139;DHT22;32398;49.112;8.598;2022-07-04T12:34:03;27.00;46.80
46139;DHT22;32398;49.112;8.598;2022-07-04T12:36:30;27.10;47.10
46139;DHT22;32398;49.112;8.598;2022-07-04T12:38:56;27.20;47.90
46139;DHT22;32398;49.112;8.598;2022-07-04T12:41:28;27.20;47.40
46139;DHT22;32398;49.112;8.598;2022-07-04T12:43:55;27.30;47.60
46139;DHT22;32398;49.112;8.598;2022-07-04T12:46:26;27.30;47.80
46139;DHT22;32398;49.112;8.598;2022-07-04T12:48:55;27.40;47.90
46139;DHT22;32398;49.112;8.598;2022-07-04T12:51:22;27.40;47.70
46139;DHT22;32398;49.112;8.598;2022-07-04T12:53:50;27.40;47.20
46139;DHT22;32398;49.112;8.598;2022-07-04T12:56:27;27.50;48.10
46139;DHT22;32398;49.112;8.598;2022-07-04T12:58:54;27.50;48.10
46139;DHT22;32398;49.112;8.598;2022-07-04T13:01:20;27.50;48.20
46139;DHT22;32398;49.112;8.598;2022-07-04T13:03:47;27.60;47.30
46139;DHT22;32398;49.112;8.598;2022-07-04T13:06:15;27.60;46.90
46139;DHT22;32398;49.112;8.598;2022-07-04T13:08:41;27.70;47.80
46139;DHT22;32398;49.112;8.598;2022-07-04T13:11:08;27.70;48.20
46139;DHT22;32398;49.112;8.598;2022-07-04T13:13:52;27.70;48.10
46139;DHT22;32398;49.112;8.598;2022-07-04T13:16:18;27.70;46.90
46139;DHT22;32398;49.112;8.598;2022-07-04T13:18:45;27.80;45.00
46139;DHT22;32398;49.112;8.598;2022-07-04T13:21:12;27.80;46.20
46139;DHT22;32398;49.112;8.598;2022-07-04T13:23:39;27.80;46.60
46139;DHT22;32398;49.112;8.598;2022-07-04T13:26:06;27.90;46.60
46139;DHT22;32398;49.112;8.598;2022-07-04T13:28:33;27.90;45.10
46139;DHT22;32398;49.112;8.598;2022-07-04T13:30:59;28.00;46.50
46139;DHT22;32398;49.112;8.598;2022-07-04T13:33:26;28.00;45.60
46139;DHT22;32398;49.112;8.598;2022-07-04T13:35:53;28.10;46.00
46139;DHT22;32398;49.112;8.598;2022-07-04T13:38:19;28.10;45.40
46139;DHT22;32398;49.112;8.598;2022-07-04T13:40:47;28.20;45.70
46139;DHT22;32398;49.112;8.598;2022-07-04T13:43:14;28.20;45.80
46139;DHT22;32398;49.112;8.598;2022-07-04T13:45:41;28.30;44.70
46139;DHT22;32398;49.112;8.598;2022-07-04T13:48:09;28.30;44.70
46139;DHT22;32398;49.112;8.598;2022-07-04T13:50:36;28.40;44.50
46139;DHT22;32398;49.112;8.598;2022-07-04T13:53:03;28.40;45.80
46139;DHT22;32398;49.112;8.598;2022-07-04T13:55:30;28.50;44.50
46139;DHT22;32398;49.112;8.598;2022-07-04T13:57:58;28.50;45.40
46139;DHT22;32398;49.112;8.598;2022-07-04T14:00:24;28.60;46.30
46139;DHT22;32398;49.112;8.598;2022-07-04T14:02:51;28.60;45.20
46139;DHT22;32398;49.112;8.598;2022-07-04T14:05:17;28.70;45.10
46139;DHT22;32398;49.112;8.598;2022-07-04T14:07:44;28.70;44.00
46139;DHT22;32398;49.112;8.598;2022-07-04T14:10:10;28.80;44.40
46139;DHT22;32398;49.112;8.598;2022-07-04T14:12:37;28.90;44.50
46139;DHT22;32398;49.112;8.598;2022-07-04T14:15:07;28.90;45.20
46139;DHT22;32398;49.112;8.598;2022-07-04T14:17:33;29.00;45.50
46139;DHT22;32398;49.112;8.598;2022-07-04T14:20:00;29.00;44.50
46139;DHT22;32398;49.112;8.598;2022-07-04T14:22:27;29.10;42.60
46139;DHT22;32398;49.112;8.598;2022-07-04T14:24:53;29.20;44.00
46139;DHT22;32398;49.112;8.598;2022-07-04T14:27:20;29.20;43.10
46139;DHT22;32398;49.112;8.598;2022-07-04T14:29:46;29.30;42.60
46139;DHT22;32398;49.112;8.598;2022-07-04T14:32:14;29.30;42.10
46139;DHT22;32398;49.112;8.598;2022-07-04T14:34:41;29.30;41.80
46139;DHT22;32398;49.112;8.598;2022-07-04T14:37:08;29.50;42.30
46139;DHT22;32398;49.112;8.598;2022-07-04T14:39:34;29.50;42.00
46139;DHT22;32398;49.112;8.598;2022-07-04T14:42:01;29.60;43.40
46139;DHT22;32398;49.112;8.598;2022-07-04T14:44:27;29.70;39.50
46139;DHT22;32398;49.112;8.598;2022-07-04T14:46:54;30.10;39.50
46139;DHT22;32398;49.112;8.598;2022-07-04T14:49:22;30.30;39.30
46139;DHT22;32398;49.112;8.598;2022-07-04T14:51:48;30.50;39.30
46139;DHT22;32398;49.112;8.598;2022-07-04T14:54:15;30.60;39.00
46139;DHT22;32398;49.112;8.598;2022-07-04T14:56:42;30.80;38.90
46139;DHT22;32398;49.112;8.598;2022-07-04T14:59:09;30.90;38.90
46139;DHT22;32398;49.112;8.598;2022-07-04T15:01:35;31.00;39.00
46139;DHT22;32398;49.112;8.598;2022-07-04T15:04:02;31.20;39.10
46139;DHT22;32398;49.112;8.598;2022-07-04T15:06:29;31.30;39.10
46139;DHT22;32398;49.112;8.598;2022-07-04T15:08:56;31.40;39.20
46139;DHT22;32398;49.112;8.598;2022-07-04T15:11:23;31.60;40.30
46139;DHT22;32398;49.112;8.598;2022-07-04T15:13:50;31.60;39.20
46139;DHT22;32398;49.112;8.598;2022-07-04T15:16:17;31.70;39.50
46139;DHT22;32398;49.112;8.598;2022-07-04T15:18:43;31.80;38.90
46139;DHT22;32398;49.112;8.598;2022-07-04T15:21:10;31.80;39.60
46139;DHT22;32398;49.112;8.598;2022-07-04T15:23:55;32.00;41.30
46139;DHT22;32398;49.112;8.598;2022-07-04T15:26:36;32.10;42.30
46139;DHT22;32398;49.112;8.598;2022-07-04T15:29:02;32.20;41.90
46139;DHT22;32398;49.112;8.598;2022-07-04T15:31:29;32.20;41.80
46139;DHT22;32398;49.112;8.598;2022-07-04T15:33:56;32.30;41.30
46139;DHT22;32398;49.112;8.598;2022-07-04T15:36:22;32.40;41.20
46139;DHT22;32398;49.112;8.598;2022-07-04T15:38:49;32.40;40.90
46139;DHT22;32398;49.112;8.598;2022-07-04T15:41:17;32.40;40.10